KNHZ/NHZ METAR and TAF weather

Enter ICAO airport designator
Station Type Date Time Source
KNHZ METAR 2010/02/08 14:56 UTC NOAA

KNHZ 081456Z AUTO A2965 RMK AO2 SLPNO 6//// 54000 PWINO FZRANO TSNO CHINO R01 $


Station Type Date Time Source
KNHZ Decoded METAR 2010/02/08 14:56 UTC NOAA

BRUNSWICK NAVAL AIR STN, ME, United States (KNHZ) 43-54N 69-56W 23M
Feb 08, 2010 - 09:56 AM EST / 2010.02.08 1456 UTC
Pressure (altimeter): 29.65 in. Hg (1004 hPa)
Pressure tendency: the same as three hours ago
ob: KNHZ 081456Z AUTO A2965 RMK AO2 SLPNO 6//// 54000 PWINO FZRANO TSNO CHINO R01
cycle: 15

Station Type Date Time Source
KNHZ TAF 2008/11/13 15:02 UTC NOAA

TAF KNHZ 131502Z 1315/1415 15006KT 9999 FEW030 SCT050 BKN100 BKN140 BKN200 641009 641903 542409 543305 QNH3020INS
BECMG 1319/1321 SCT030 BKN050 BKN100 OVC140 641009 641903 542409 543305 QNH3018INS
BECMG 1322/1400 9999 VCSH BKN030 BKN050 OVC100 640609 641507 542409 543305 QNH3016INS
TEMPO 1400/1403 8000 -RA BKN010 OVC030
BECMG 1401/1403 14007KT 8000 -RA BKN010 OVC030 640809 641705 542409 543305 QNH3004INS
TEMPO 1403/1409 4800 -RA BKN005 OVC010
BECMG 1410/1412 16010G18KT 4800 -RA BR SCT002 BKN005 OVC010 640809 641705 542409 543305 QNH2997INS
TEMPO 1411/1415 VRB04KT 0800 RA FG BKN001 OVC005 TM02/1309Z T07/1411Z


Example: see airport list